sensor_id;sensor_type;location;lat;lon;timestamp;pressure;altitude;pressure_sealevel;temperature;humidity
9695;BME280;4690;52.422;13.486;2023-03-21T00:06:24;101387.75;;;10.77;66.04
9695;BME280;4690;52.422;13.486;2023-03-21T00:08:50;101381.00;;;10.80;66.06
9695;BME280;4690;52.422;13.486;2023-03-21T00:11:16;101388.38;;;10.86;65.97
9695;BME280;4690;52.422;13.486;2023-03-21T00:13:41;101384.59;;;10.67;66.48
9695;BME280;4690;52.422;13.486;2023-03-21T00:16:14;101382.06;;;10.59;67.67
9695;BME280;4690;52.422;13.486;2023-03-21T00:18:47;101375.53;;;10.60;67.55
9695;BME280;4690;52.422;13.486;2023-03-21T00:21:19;101385.63;;;10.72;66.97
9695;BME280;4690;52.422;13.486;2023-03-21T00:23:45;101376.97;;;10.75;66.85
9695;BME280;4690;52.422;13.486;2023-03-21T00:26:13;101373.00;;;10.65;66.95
9695;BME280;4690;52.422;13.486;2023-03-21T00:28:41;101371.09;;;10.59;67.36
9695;BME280;4690;52.422;13.486;2023-03-21T00:31:08;101382.06;;;10.59;67.57
9695;BME280;4690;52.422;13.486;2023-03-21T00:33:35;101373.63;;;10.67;67.45
9695;BME280;4690;52.422;13.486;2023-03-21T00:36:04;101376.56;;;10.72;67.21
9695;BME280;4690;52.422;13.486;2023-03-21T00:38:30;101364.97;;;10.70;66.66
9695;BME280;4690;52.422;13.486;2023-03-21T00:40:56;101363.94;;;10.71;66.93
9695;BME280;4690;52.422;13.486;2023-03-21T00:43:22;101365.19;;;10.75;67.12
9695;BME280;4690;52.422;13.486;2023-03-21T00:45:56;101364.16;;;10.76;66.91
9695;BME280;4690;52.422;13.486;2023-03-21T00:48:24;101362.69;;;10.60;67.48
9695;BME280;4690;52.422;13.486;2023-03-21T00:50:52;101358.66;;;10.63;67.64
9695;BME280;4690;52.422;13.486;2023-03-21T00:53:19;101359.28;;;10.58;67.91
9695;BME280;4690;52.422;13.486;2023-03-21T00:55:44;101361.41;;;10.49;67.96
9695;BME280;4690;52.422;13.486;2023-03-21T00:58:10;101359.53;;;10.57;68.16
9695;BME280;4690;52.422;13.486;2023-03-21T01:00:37;101365.84;;;10.70;68.02
9695;BME280;4690;52.422;13.486;2023-03-21T01:03:05;101362.44;;;10.75;67.43
9695;BME280;4690;52.422;13.486;2023-03-21T01:05:37;101358.66;;;10.69;67.34
9695;BME280;4690;52.422;13.486;2023-03-21T01:08:22;101358.47;;;10.71;67.78
9695;BME280;4690;52.422;13.486;2023-03-21T01:10:50;101364.97;;;10.76;67.41
9695;BME280;4690;52.422;13.486;2023-03-21T01:13:21;101355.94;;;10.76;67.41
9695;BME280;4690;52.422;13.486;2023-03-21T01:15:51;101354.03;;;10.76;67.07
9695;BME280;4690;52.422;13.486;2023-03-21T01:18:23;101360.34;;;10.70;67.83
9695;BME280;4690;52.422;13.486;2023-03-21T01:20:58;101354.25;;;10.68;67.66
9695;BME280;4690;52.422;13.486;2023-03-21T01:23:27;101357.81;;;10.55;68.16
9695;BME280;4690;52.422;13.486;2023-03-21T01:25:55;101357.38;;;10.59;68.30
9695;BME280;4690;52.422;13.486;2023-03-21T01:28:24;101351.50;;;10.48;68.30
9695;BME280;4690;52.422;13.486;2023-03-21T01:30:51;101346.88;;;10.42;69.01
9695;BME280;4690;52.422;13.486;2023-03-21T01:33:19;101356.97;;;10.55;68.71
9695;BME280;4690;52.422;13.486;2023-03-21T01:35:45;101351.91;;;10.59;68.19
9695;BME280;4690;52.422;13.486;2023-03-21T01:38:12;101355.06;;;10.55;68.38
9695;BME280;4690;52.422;13.486;2023-03-21T01:40:39;101353.41;;;10.54;68.31
9695;BME280;4690;52.422;13.486;2023-03-21T01:43:30;101354.66;;;10.59;68.47
9695;BME280;4690;52.422;13.486;2023-03-21T01:46:20;101343.50;;;10.60;68.25
9695;BME280;4690;52.422;13.486;2023-03-21T01:48:57;101345.59;;;10.51;68.40
9695;BME280;4690;52.422;13.486;2023-03-21T01:51:26;101348.78;;;10.48;68.21
9695;BME280;4690;52.422;13.486;2023-03-21T01:53:54;101346.66;;;10.57;68.35
9695;BME280;4690;52.422;13.486;2023-03-21T01:56:27;101351.94;;;10.65;67.76
9695;BME280;4690;52.422;13.486;2023-03-21T01:58:59;101350.44;;;10.49;67.74
9695;BME280;4690;52.422;13.486;2023-03-21T02:01:30;101350.88;;;10.60;67.68
9695;BME280;4690;52.422;13.486;2023-03-21T02:03:57;101348.13;;;10.66;67.97
9695;BME280;4690;52.422;13.486;2023-03-21T02:06:39;101347.91;;;10.61;67.65
9695;BME280;4690;52.422;13.486;2023-03-21T02:09:15;101345.19;;;10.35;68.51
9695;BME280;4690;52.422;13.486;2023-03-21T02:11:42;101345.78;;;10.17;69.86
9695;BME280;4690;52.422;13.486;2023-03-21T02:14:16;101345.38;;;10.20;69.45
9695;BME280;4690;52.422;13.486;2023-03-21T02:17:27;101346.03;;;10.35;69.56
9695;BME280;4690;52.422;13.486;2023-03-21T02:32:21;101342.47;;;10.28;70.64
9695;BME280;4690;52.422;13.486;2023-03-21T02:35:13;101338.88;;;10.34;70.45
9695;BME280;4690;52.422;13.486;2023-03-21T02:41:13;101343.03;;;10.23;71.17
9695;BME280;4690;52.422;13.486;2023-03-21T02:46:45;101335.63;;;9.91;72.76
9695;BME280;4690;52.422;13.486;2023-03-21T02:49:46;101333.34;;;9.94;72.75
9695;BME280;4690;52.422;13.486;2023-03-21T02:52:21;101335.00;;;10.02;72.91
9695;BME280;4690;52.422;13.486;2023-03-21T02:54:49;101344.91;;;9.90;73.09
9695;BME280;4690;52.422;13.486;2023-03-21T02:57:18;101339.63;;;9.88;73.72
9695;BME280;4690;52.422;13.486;2023-03-21T02:59:49;101339.44;;;9.96;73.57
9695;BME280;4690;52.422;13.486;2023-03-21T03:02:23;101340.72;;;10.07;73.02
9695;BME280;4690;52.422;13.486;2023-03-21T03:04:50;101349.56;;;10.16;73.00
9695;BME280;4690;52.422;13.486;2023-03-21T03:16:38;101346.38;;;9.85;74.12
9695;BME280;4690;52.422;13.486;2023-03-21T03:19:15;101338.97;;;9.79;74.60
9695;BME280;4690;52.422;13.486;2023-03-21T03:21:57;101349.06;;;9.72;74.65
9695;BME280;4690;52.422;13.486;2023-03-21T03:24:23;101340.25;;;9.83;74.77
9695;BME280;4690;52.422;13.486;2023-03-21T03:27:10;101341.47;;;9.68;75.61
9695;BME280;4690;52.422;13.486;2023-03-21T03:29:41;101342.78;;;9.72;75.90
9695;BME280;4690;52.422;13.486;2023-03-21T03:32:25;101345.50;;;9.72;75.92
9695;BME280;4690;52.422;13.486;2023-03-21T03:34:56;101354.09;;;9.62;76.18
9695;BME280;4690;52.422;13.486;2023-03-21T03:37:28;101350.53;;;9.68;76.35
9695;BME280;4690;52.422;13.486;2023-03-21T03:42:47;101345.88;;;9.55;77.10
9695;BME280;4690;52.422;13.486;2023-03-21T03:45:14;101353.44;;;9.53;77.96
9695;BME280;4690;52.422;13.486;2023-03-21T03:47:53;101351.53;;;9.47;77.87
9695;BME280;4690;52.422;13.486;2023-03-21T03:50:47;101355.31;;;9.46;77.69
9695;BME280;4690;52.422;13.486;2023-03-21T03:53:22;101358.44;;;9.43;78.89
9695;BME280;4690;52.422;13.486;2023-03-21T03:55:52;101354.00;;;9.35;78.97
9695;BME280;4690;52.422;13.486;2023-03-21T03:58:21;101350.81;;;9.32;79.94
9695;BME280;4690;52.422;13.486;2023-03-21T04:00:47;101352.72;;;9.31;80.31
9695;BME280;4690;52.422;13.486;2023-03-21T04:03:14;101352.75;;;9.38;80.14
9695;BME280;4690;52.422;13.486;2023-03-21T04:05:40;101351.03;;;9.37;80.15
9695;BME280;4690;52.422;13.486;2023-03-21T04:08:07;101351.09;;;9.50;79.53
9695;BME280;4690;52.422;13.486;2023-03-21T04:10:34;101348.84;;;9.60;79.40
9695;BME280;4690;52.422;13.486;2023-03-21T04:13:00;101351.16;;;9.63;78.94
9695;BME280;4690;52.422;13.486;2023-03-21T04:15:25;101341.25;;;9.62;78.84
9695;BME280;4690;52.422;13.486;2023-03-21T04:17:51;101347.72;;;9.48;79.21
9695;BME280;4690;52.422;13.486;2023-03-21T04:20:17;101344.38;;;9.53;79.76
9695;BME280;4690;52.422;13.486;2023-03-21T04:22:43;101354.72;;;9.64;79.36
9695;BME280;4690;52.422;13.486;2023-03-21T04:25:09;101353.25;;;9.68;79.01
9695;BME280;4690;52.422;13.486;2023-03-21T04:27:35;101337.91;;;9.60;79.36
9695;BME280;4690;52.422;13.486;2023-03-21T04:30:02;101347.38;;;9.64;79.03
9695;BME280;4690;52.422;13.486;2023-03-21T04:32:28;101347.97;;;9.60;79.19
9695;BME280;4690;52.422;13.486;2023-03-21T04:34:59;101345.06;;;9.68;79.05
9695;BME280;4690;52.422;13.486;2023-03-21T04:37:25;101345.94;;;9.75;78.90
9695;BME280;4690;52.422;13.486;2023-03-21T04:39:53;101341.09;;;9.77;78.82
9695;BME280;4690;52.422;13.486;2023-03-21T04:42:18;101350.75;;;9.67;79.40
9695;BME280;4690;52.422;13.486;2023-03-21T04:44:46;101344.84;;;9.63;79.55
9695;BME280;4690;52.422;13.486;2023-03-21T04:47:13;101341.66;;;9.59;79.56
9695;BME280;4690;52.422;13.486;2023-03-21T04:49:42;101338.91;;;9.59;79.53
9695;BME280;4690;52.422;13.486;2023-03-21T04:52:08;101345.47;;;9.65;79.19
9695;BME280;4690;52.422;13.486;2023-03-21T04:54:34;101344.44;;;9.73;79.55
9695;BME280;4690;52.422;13.486;2023-03-21T04:57:00;101346.34;;;9.72;78.84
9695;BME280;4690;52.422;13.486;2023-03-21T04:59:26;101345.69;;;9.77;78.88
9695;BME280;4690;52.422;13.486;2023-03-21T05:01:51;101342.13;;;9.70;78.92
9695;BME280;4690;52.422;13.486;2023-03-21T05:04:18;101342.91;;;9.50;80.40
9695;BME280;4690;52.422;13.486;2023-03-21T05:06:45;101350.50;;;9.61;80.30
9695;BME280;4690;52.422;13.486;2023-03-21T05:09:11;101350.09;;;9.71;80.08
9695;BME280;4690;52.422;13.486;2023-03-21T05:11:39;101346.94;;;9.61;80.16
9695;BME280;4690;52.422;13.486;2023-03-21T05:14:09;101343.50;;;9.46;81.48
9695;BME280;4690;52.422;13.486;2023-03-21T05:16:38;101347.31;;;9.51;81.41
9695;BME280;4690;52.422;13.486;2023-03-21T05:19:14;101350.09;;;9.58;81.41
9695;BME280;4690;52.422;13.486;2023-03-21T05:21:40;101336.63;;;9.63;81.42
9695;BME280;4690;52.422;13.486;2023-03-21T05:24:15;101345.22;;;9.60;81.17
9695;BME280;4690;52.422;13.486;2023-03-21T05:26:43;101337.44;;;9.50;82.17
9695;BME280;4690;52.422;13.486;2023-03-21T05:29:09;101344.78;;;9.50;82.16
9695;BME280;4690;52.422;13.486;2023-03-21T05:31:36;101338.91;;;9.53;82.27
9695;BME280;4690;52.422;13.486;2023-03-21T05:34:02;101349.44;;;9.62;81.91
9695;BME280;4690;52.422;13.486;2023-03-21T05:36:28;101342.53;;;9.67;82.15
9695;BME280;4690;52.422;13.486;2023-03-21T05:38:53;101349.50;;;9.69;81.97
9695;BME280;4690;52.422;13.486;2023-03-21T05:41:19;101350.28;;;9.56;82.04
9695;BME280;4690;52.422;13.486;2023-03-21T05:43:46;101345.63;;;9.43;82.95
9695;BME280;4690;52.422;13.486;2023-03-21T05:46:12;101348.28;;;9.30;83.56
9695;BME280;4690;52.422;13.486;2023-03-21T05:48:38;101343.47;;;9.32;84.28
9695;BME280;4690;52.422;13.486;2023-03-21T05:51:04;101345.16;;;9.40;83.67
9695;BME280;4690;52.422;13.486;2023-03-21T05:53:30;101349.38;;;9.42;83.90
9695;BME280;4690;52.422;13.486;2023-03-21T05:55:57;101351.09;;;9.50;83.58
9695;BME280;4690;52.422;13.486;2023-03-21T05:58:22;101339.56;;;9.55;83.47
9695;BME280;4690;52.422;13.486;2023-03-21T06:00:48;101347.53;;;9.50;83.66
9695;BME280;4690;52.422;13.486;2023-03-21T06:03:15;101342.72;;;9.52;83.46
9695;BME280;4690;52.422;13.486;2023-03-21T06:05:41;101347.28;;;9.38;84.12
9695;BME280;4690;52.422;13.486;2023-03-21T06:08:07;101352.59;;;9.53;84.20
9695;BME280;4690;52.422;13.486;2023-03-21T06:10:32;101352.38;;;9.54;83.43
9695;BME280;4690;52.422;13.486;2023-03-21T06:12:58;101357.00;;;9.54;84.16
9695;BME280;4690;52.422;13.486;2023-03-21T06:15:24;101356.59;;;9.57;83.96
9695;BME280;4690;52.422;13.486;2023-03-21T06:17:51;101370.13;;;9.72;83.04
9695;BME280;4690;52.422;13.486;2023-03-21T06:20:17;101362.28;;;9.62;83.75
9695;BME280;4690;52.422;13.486;2023-03-21T06:22:43;101359.38;;;9.77;83.54
9695;BME280;4690;52.422;13.486;2023-03-21T06:25:09;101367.41;;;9.85;82.93
9695;BME280;4690;52.422;13.486;2023-03-21T06:27:36;101363.19;;;9.76;83.36
9695;BME280;4690;52.422;13.486;2023-03-21T06:30:03;101360.84;;;9.66;83.32
9695;BME280;4690;52.422;13.486;2023-03-21T06:32:30;101365.88;;;9.62;83.93
9695;BME280;4690;52.422;13.486;2023-03-21T06:34:56;101363.19;;;9.69;83.75
9695;BME280;4690;52.422;13.486;2023-03-21T06:37:21;101354.44;;;9.46;84.57
9695;BME280;4690;52.422;13.486;2023-03-21T06:39:47;101356.38;;;9.52;84.97
9695;BME280;4690;52.422;13.486;2023-03-21T06:42:14;101358.72;;;9.55;85.10
9695;BME280;4690;52.422;13.486;2023-03-21T06:44:40;101364.38;;;9.47;85.22
9695;BME280;4690;52.422;13.486;2023-03-21T06:47:06;101357.06;;;9.74;84.90
9695;BME280;4690;52.422;13.486;2023-03-21T06:49:32;101363.19;;;9.76;84.42
9695;BME280;4690;52.422;13.486;2023-03-21T06:51:58;101363.38;;;9.68;85.04
9695;BME280;4690;52.422;13.486;2023-03-21T06:54:23;101380.91;;;9.93;84.03
9695;BME280;4690;52.422;13.486;2023-03-21T06:56:49;101366.63;;;10.04;83.32
9695;BME280;4690;52.422;13.486;2023-03-21T06:59:16;101368.06;;;9.94;82.68
9695;BME280;4690;52.422;13.486;2023-03-21T07:01:42;101368.88;;;9.81;83.62
9695;BME280;4690;52.422;13.486;2023-03-21T07:04:09;101367.59;;;9.70;84.42
9695;BME280;4690;52.422;13.486;2023-03-21T07:06:35;101373.22;;;9.55;84.74
9695;BME280;4690;52.422;13.486;2023-03-21T07:09:02;101370.28;;;9.57;85.57
9695;BME280;4690;52.422;13.486;2023-03-21T07:11:30;101376.88;;;9.76;84.92
9695;BME280;4690;52.422;13.486;2023-03-21T07:13:57;101374.00;;;9.97;84.18
9695;BME280;4690;52.422;13.486;2023-03-21T07:16:23;101381.31;;;9.83;84.82
9695;BME280;4690;52.422;13.486;2023-03-21T07:18:50;101373.78;;;10.05;84.05
9695;BME280;4690;52.422;13.486;2023-03-21T07:21:17;101364.09;;;10.09;83.58
9695;BME280;4690;52.422;13.486;2023-03-21T07:23:42;101373.56;;;10.00;83.70
9695;BME280;4690;52.422;13.486;2023-03-21T07:26:09;101369.72;;;9.88;84.41
9695;BME280;4690;52.422;13.486;2023-03-21T07:28:34;101379.53;;;9.56;85.61
9695;BME280;4690;52.422;13.486;2023-03-21T07:31:04;101373.06;;;9.77;85.74
9695;BME280;4690;52.422;13.486;2023-03-21T07:33:31;101376.88;;;9.82;85.71
9695;BME280;4690;52.422;13.486;2023-03-21T07:35:58;101374.81;;;9.91;85.52
9695;BME280;4690;52.422;13.486;2023-03-21T07:38:25;101379.00;;;9.80;85.26
9695;BME280;4690;52.422;13.486;2023-03-21T07:40:51;101380.44;;;9.76;86.31
9695;BME280;4690;52.422;13.486;2023-03-21T07:43:18;101377.28;;;9.79;86.37
9695;BME280;4690;52.422;13.486;2023-03-21T07:45:44;101381.69;;;9.60;87.06
9695;BME280;4690;52.422;13.486;2023-03-21T07:48:12;101386.50;;;9.58;87.73
9695;BME280;4690;52.422;13.486;2023-03-21T07:50:39;101375.63;;;9.85;87.46
9695;BME280;4690;52.422;13.486;2023-03-21T07:53:05;101373.75;;;9.85;86.73
9695;BME280;4690;52.422;13.486;2023-03-21T07:55:31;101378.16;;;9.80;87.04
9695;BME280;4690;52.422;13.486;2023-03-21T07:58:03;101374.81;;;9.91;86.42
9695;BME280;4690;52.422;13.486;2023-03-21T08:00:29;101373.75;;;9.92;86.76
9695;BME280;4690;52.422;13.486;2023-03-21T08:02:56;101370.03;;;10.20;86.38
9695;BME280;4690;52.422;13.486;2023-03-21T08:05:26;101369.19;;;10.32;85.23
9695;BME280;4690;52.422;13.486;2023-03-21T08:07:53;101371.72;;;10.27;84.80
9695;BME280;4690;52.422;13.486;2023-03-21T08:10:19;101365.56;;;10.19;85.29
9695;BME280;4690;52.422;13.486;2023-03-21T08:12:45;101377.75;;;9.83;86.48
9695;BME280;4690;52.422;13.486;2023-03-21T08:15:12;101366.38;;;9.93;87.53
9695;BME280;4690;52.422;13.486;2023-03-21T08:17:39;101375.66;;;9.98;86.94
9695;BME280;4690;52.422;13.486;2023-03-21T08:20:09;101373.53;;;9.87;87.80
9695;BME280;4690;52.422;13.486;2023-03-21T08:22:37;101376.72;;;10.10;86.85
9695;BME280;4690;52.422;13.486;2023-03-21T08:25:05;101367.69;;;10.23;86.55
9695;BME280;4690;52.422;13.486;2023-03-21T08:27:33;101374.91;;;10.38;86.22
9695;BME280;4690;52.422;13.486;2023-03-21T08:30:00;101381.66;;;10.35;86.09
9695;BME280;4690;52.422;13.486;2023-03-21T08:32:27;101371.50;;;10.22;85.54
9695;BME280;4690;52.422;13.486;2023-03-21T08:35:01;101385.22;;;10.29;85.94
9695;BME280;4690;52.422;13.486;2023-03-21T08:37:27;101374.44;;;10.21;86.09
9695;BME280;4690;52.422;13.486;2023-03-21T08:39:54;101373.81;;;10.25;86.76
9695;BME280;4690;52.422;13.486;2023-03-21T08:42:21;101374.50;;;10.34;86.58
9695;BME280;4690;52.422;13.486;2023-03-21T08:44:48;101378.25;;;10.33;87.52
9695;BME280;4690;52.422;13.486;2023-03-21T08:47:14;101371.09;;;10.25;87.35
9695;BME280;4690;52.422;13.486;2023-03-21T08:49:40;101375.31;;;10.35;88.51
9695;BME280;4690;52.422;13.486;2023-03-21T08:52:06;101371.72;;;10.27;88.30
9695;BME280;4690;52.422;13.486;2023-03-21T08:54:33;101372.38;;;10.49;88.61
9695;BME280;4690;52.422;13.486;2023-03-21T08:56:59;101364.56;;;10.66;87.50
9695;BME280;4690;52.422;13.486;2023-03-21T08:59:24;101371.94;;;10.66;87.46
9695;BME280;4690;52.422;13.486;2023-03-21T09:01:50;101367.31;;;10.53;88.03
9695;BME280;4690;52.422;13.486;2023-03-21T09:04:16;101371.06;;;10.19;89.09
9695;BME280;4690;52.422;13.486;2023-03-21T09:06:43;101370.50;;;10.37;89.63
9695;BME280;4690;52.422;13.486;2023-03-21T09:09:14;101374.69;;;10.46;90.05
9695;BME280;4690;52.422;13.486;2023-03-21T09:11:41;101374.47;;;10.74;89.12
9695;BME280;4690;52.422;13.486;2023-03-21T09:14:07;101371.94;;;10.66;88.59
9695;BME280;4690;52.422;13.486;2023-03-21T09:16:34;101375.72;;;10.78;88.12
9695;BME280;4690;52.422;13.486;2023-03-21T09:19:00;101371.69;;;10.94;87.05
9695;BME280;4690;52.422;13.486;2023-03-21T09:21:29;101369.56;;;11.03;85.40
9695;BME280;4690;52.422;13.486;2023-03-21T09:23:56;101380.34;;;10.97;85.28
9695;BME280;4690;52.422;13.486;2023-03-21T09:26:25;101370.47;;;10.90;85.67
9695;BME280;4690;52.422;13.486;2023-03-21T09:28:53;101364.09;;;11.03;85.97
9695;BME280;4690;52.422;13.486;2023-03-21T09:31:20;101371.03;;;11.05;86.03
9695;BME280;4690;52.422;13.486;2023-03-21T09:33:53;101368.47;;;11.24;84.64
9695;BME280;4690;52.422;13.486;2023-03-21T09:36:21;101364.03;;;11.22;84.33
9695;BME280;4690;52.422;13.486;2023-03-21T09:38:49;101368.09;;;11.00;85.41
9695;BME280;4690;52.422;13.486;2023-03-21T09:49:43;101358.91;;;11.39;83.84
9695;BME280;4690;52.422;13.486;2023-03-21T09:52:20;101357.63;;;11.42;83.73
9695;BME280;4690;52.422;13.486;2023-03-21T09:54:48;101351.59;;;11.65;82.44
9695;BME280;4690;52.422;13.486;2023-03-21T09:57:40;101352.88;;;11.69;81.08
9695;BME280;4690;52.422;13.486;2023-03-21T10:00:20;101358.66;;;11.93;79.55
9695;BME280;4690;52.422;13.486;2023-03-21T10:02:53;101351.00;;;12.01;79.64
9695;BME280;4690;52.422;13.486;2023-03-21T10:05:23;101357.03;;;11.78;78.88
9695;BME280;4690;52.422;13.486;2023-03-21T10:08:29;101356.16;;;11.91;79.47
9695;BME280;4690;52.422;13.486;2023-03-21T10:11:08;101350.81;;;11.96;78.38
9695;BME280;4690;52.422;13.486;2023-03-21T10:13:48;101348.75;;;11.92;78.32
9695;BME280;4690;52.422;13.486;2023-03-21T10:16:34;101345.16;;;11.84;78.74
9695;BME280;4690;52.422;13.486;2023-03-21T10:19:09;101340.19;;;11.68;79.45
9695;BME280;4690;52.422;13.486;2023-03-21T10:21:40;101343.56;;;11.70;79.72
9695;BME280;4690;52.422;13.486;2023-03-21T10:24:22;101338.44;;;11.80;79.63
9695;BME280;4690;52.422;13.486;2023-03-21T10:26:50;101329.28;;;11.55;80.11
9695;BME280;4690;52.422;13.486;2023-03-21T10:29:22;101341.63;;;11.77;79.60
9695;BME280;4690;52.422;13.486;2023-03-21T10:31:51;101338.59;;;11.92;79.71
9695;BME280;4690;52.422;13.486;2023-03-21T10:34:32;101334.69;;;12.06;78.32
9695;BME280;4690;52.422;13.486;2023-03-21T10:37:02;101338.25;;;12.39;76.94
9695;BME280;4690;52.422;13.486;2023-03-21T10:39:40;101338.91;;;12.09;77.46
9695;BME280;4690;52.422;13.486;2023-03-21T10:42:29;101341.56;;;11.84;78.60
9695;BME280;4690;52.422;13.486;2023-03-21T10:44:58;101335.34;;;12.02;78.04
9695;BME280;4690;52.422;13.486;2023-03-21T10:47:32;101319.25;;;12.37;77.91
9695;BME280;4690;52.422;13.486;2023-03-21T10:50:10;101317.28;;;12.19;77.37
9695;BME280;4690;52.422;13.486;2023-03-21T10:52:45;101321.28;;;12.67;76.48
9695;BME280;4690;52.422;13.486;2023-03-21T10:57:52;101318.25;;;12.50;76.31
9695;BME280;4690;52.422;13.486;2023-03-21T11:00:24;101310.84;;;12.94;75.07
9695;BME280;4690;52.422;13.486;2023-03-21T11:02:52;101313.91;;;13.22;73.48
9695;BME280;4690;52.422;13.486;2023-03-21T11:05:25;101309.72;;;13.01;73.96
9695;BME280;4690;52.422;13.486;2023-03-21T11:08:11;101302.38;;;13.32;73.53
9695;BME280;4690;52.422;13.486;2023-03-21T11:11:02;101314.28;;;12.71;74.18
9695;BME280;4690;52.422;13.486;2023-03-21T11:13:43;101318.41;;;13.17;73.90
9695;BME280;4690;52.422;13.486;2023-03-21T11:16:40;101316.22;;;13.26;72.17
9695;BME280;4690;52.422;13.486;2023-03-21T11:19:19;101304.94;;;13.45;71.19
9695;BME280;4690;52.422;13.486;2023-03-21T11:21:51;101304.41;;;13.55;71.70
9695;BME280;4690;52.422;13.486;2023-03-21T11:24:18;101304.97;;;13.76;71.55
9695;BME280;4690;52.422;13.486;2023-03-21T11:26:48;101308.38;;;13.59;70.46
9695;BME280;4690;52.422;13.486;2023-03-21T11:29:39;101297.78;;;13.75;70.46
9695;BME280;4690;52.422;13.486;2023-03-21T11:32:22;101293.66;;;13.65;70.45
9695;BME280;4690;52.422;13.486;2023-03-21T11:37:38;101278.41;;;13.93;69.23
9695;BME280;4690;52.422;13.486;2023-03-21T11:40:26;101284.50;;;13.83;70.13
9695;BME280;4690;52.422;13.486;2023-03-21T11:43:00;101277.31;;;13.82;69.89
9695;BME280;4690;52.422;13.486;2023-03-21T11:45:34;101282.78;;;13.71;70.28
9695;BME280;4690;52.422;13.486;2023-03-21T11:48:12;101282.56;;;13.42;71.74
9695;BME280;4690;52.422;13.486;2023-03-21T11:50:46;101277.03;;;13.42;71.53
9695;BME280;4690;52.422;13.486;2023-03-21T11:53:34;101272.00;;;13.39;72.06
9695;BME280;4690;52.422;13.486;2023-03-21T11:56:32;101271.31;;;13.25;72.66
9695;BME280;4690;52.422;13.486;2023-03-21T11:59:27;101265.19;;;13.41;72.63
9695;BME280;4690;52.422;13.486;2023-03-21T12:05:01;101263.00;;;13.13;73.62
9695;BME280;4690;52.422;13.486;2023-03-21T12:10:56;101257.38;;;12.90;74.47
9695;BME280;4690;52.422;13.486;2023-03-21T12:13:51;101245.84;;;12.81;75.94
9695;BME280;4690;52.422;13.486;2023-03-21T12:17:11;101251.00;;;13.26;73.81
9695;BME280;4690;52.422;13.486;2023-03-21T12:29:02;101231.75;;;13.68;71.72
9695;BME280;4690;52.422;13.486;2023-03-21T12:31:54;101235.53;;;13.97;69.78
9695;BME280;4690;52.422;13.486;2023-03-21T12:34:55;101229.13;;;13.61;70.64
9695;BME280;4690;52.422;13.486;2023-03-21T12:43:46;101222.63;;;13.56;71.49
9695;BME280;4690;52.422;13.486;2023-03-21T12:49:09;101214.94;;;14.00;70.31
9695;BME280;4690;52.422;13.486;2023-03-21T12:51:42;101204.97;;;13.75;70.42
9695;BME280;4690;52.422;13.486;2023-03-21T12:54:39;101204.59;;;13.72;70.47
9695;BME280;4690;52.422;13.486;2023-03-21T12:57:14;101205.09;;;13.92;70.24
9695;BME280;4690;52.422;13.486;2023-03-21T13:00:04;101199.72;;;14.09;69.44
9695;BME280;4690;52.422;13.486;2023-03-21T13:06:05;101192.41;;;13.91;70.33
9695;BME280;4690;52.422;13.486;2023-03-21T13:08:48;101193.72;;;13.88;70.14
9695;BME280;4690;52.422;13.486;2023-03-21T13:11:22;101189.06;;;13.89;70.28
9695;BME280;4690;52.422;13.486;2023-03-21T13:16:55;101175.06;;;14.14;69.66
9695;BME280;4690;52.422;13.486;2023-03-21T13:19:37;101180.28;;;14.27;69.46
9695;BME280;4690;52.422;13.486;2023-03-21T13:22:27;101164.59;;;14.04;69.45
9695;BME280;4690;52.422;13.486;2023-03-21T13:25:17;101173.69;;;13.81;70.64
9695;BME280;4690;52.422;13.486;2023-03-21T13:28:15;101171.91;;;13.87;71.14
9695;BME280;4690;52.422;13.486;2023-03-21T13:30:42;101168.94;;;14.00;70.58
9695;BME280;4690;52.422;13.486;2023-03-21T13:33:21;101164.25;;;14.01;70.51
9695;BME280;4690;52.422;13.486;2023-03-21T13:36:08;101159.31;;;13.67;72.67
9695;BME280;4690;52.422;13.486;2023-03-21T13:38:35;101149.88;;;13.87;71.03
9695;BME280;4690;52.422;13.486;2023-03-21T13:41:13;101147.38;;;13.97;71.01
9695;BME280;4690;52.422;13.486;2023-03-21T13:43:53;101151.78;;;14.10;70.92
9695;BME280;4690;52.422;13.486;2023-03-21T13:49:30;101155.25;;;14.29;69.57
9695;BME280;4690;52.422;13.486;2023-03-21T13:52:00;101153.47;;;14.11;70.10
9695;BME280;4690;52.422;13.486;2023-03-21T13:54:55;101152.41;;;13.88;70.67
9695;BME280;4690;52.422;13.486;2023-03-21T14:00:26;101153.44;;;13.64;72.34
9695;BME280;4690;52.422;13.486;2023-03-21T14:03:05;101147.00;;;13.82;72.21
9695;BME280;4690;52.422;13.486;2023-03-21T14:05:32;101151.50;;;13.41;73.01
9695;BME280;4690;52.422;13.486;2023-03-21T14:08:09;101148.50;;;13.54;73.10
9695;BME280;4690;52.422;13.486;2023-03-21T14:10:44;101148.78;;;13.64;72.94
9695;BME280;4690;52.422;13.486;2023-03-21T14:13:18;101138.03;;;13.75;72.50
9695;BME280;4690;52.422;13.486;2023-03-21T14:15:58;101147.38;;;13.97;71.31
9695;BME280;4690;52.422;13.486;2023-03-21T14:18:27;101143.25;;;13.41;72.81
9695;BME280;4690;52.422;13.486;2023-03-21T14:20:56;101135.81;;;13.53;72.99
9695;BME280;4690;52.422;13.486;2023-03-21T14:23:23;101135.94;;;13.47;73.26
9695;BME280;4690;52.422;13.486;2023-03-21T14:25:50;101141.34;;;13.65;72.71
9695;BME280;4690;52.422;13.486;2023-03-21T14:28:24;101130.19;;;13.60;72.97
9695;BME280;4690;52.422;13.486;2023-03-21T14:30:54;101135.75;;;13.72;72.32
9695;BME280;4690;52.422;13.486;2023-03-21T14:33:39;101124.72;;;13.72;72.02
9695;BME280;4690;52.422;13.486;2023-03-21T14:36:24;101113.69;;;13.95;72.23
9695;BME280;4690;52.422;13.486;2023-03-21T14:39:14;101120.75;;;14.15;70.53
9695;BME280;4690;52.422;13.486;2023-03-21T14:41:55;101114.06;;;13.87;71.13
9695;BME280;4690;52.422;13.486;2023-03-21T14:44:33;101104.97;;;13.86;71.49
9695;BME280;4690;52.422;13.486;2023-03-21T14:47:15;101103.38;;;14.26;70.67
9695;BME280;4690;52.422;13.486;2023-03-21T14:49:41;101107.13;;;14.60;69.10
9695;BME280;4690;52.422;13.486;2023-03-21T14:52:31;101110.16;;;14.59;68.54
9695;BME280;4690;52.422;13.486;2023-03-21T14:54:59;101095.28;;;14.60;69.31
9695;BME280;4690;52.422;13.486;2023-03-21T14:57:31;101095.50;;;14.70;68.09